createdAt,value
2023-04-23T00:02:03.080Z,37.75
2023-04-23T00:04:29.126Z,34.22
2023-04-23T00:06:54.188Z,31.95
2023-04-23T00:09:19.746Z,36.80
2023-04-23T00:11:44.917Z,31.02
2023-04-23T00:14:09.808Z,34.80
2023-04-23T00:16:35.174Z,30.90
2023-04-23T00:19:01.160Z,28.13
2023-04-23T00:21:27.804Z,26.30
2023-04-23T00:23:52.498Z,28.77
2023-04-23T00:26:18.655Z,26.95
2023-04-23T00:28:43.577Z,30.40
2023-04-23T00:31:09.126Z,33.95
2023-04-23T00:33:34.325Z,33.85
2023-04-23T00:36:00.659Z,34.80
2023-04-23T00:38:26.690Z,32.47
2023-04-23T00:40:52.202Z,31.55
2023-04-23T00:43:17.808Z,33.63
2023-04-23T00:45:43.151Z,34.22
2023-04-23T00:48:09.619Z,31.75
2023-04-23T00:50:34.174Z,31.50
2023-04-23T00:53:00.185Z,28.23
2023-04-23T00:55:25.190Z,30.45
2023-04-23T00:57:50.710Z,25.83
2023-04-23T01:00:16.503Z,26.50
2023-04-23T01:02:42.653Z,25.20
2023-04-23T01:05:09.492Z,44.00
2023-04-23T01:07:36.991Z,30.02
2023-04-23T01:10:03.628Z,32.40
2023-04-23T01:12:29.493Z,46.28
2023-04-23T01:14:54.378Z,35.50
2023-04-23T01:17:19.599Z,33.88
2023-04-23T01:19:45.368Z,39.83
2023-04-23T01:22:13.324Z,33.38
2023-04-23T01:24:38.889Z,34.45
2023-04-23T01:27:03.950Z,35.17
2023-04-23T01:29:28.789Z,34.25
2023-04-23T01:31:54.769Z,31.65
2023-04-23T01:34:20.196Z,31.50
2023-04-23T01:36:45.643Z,30.27
2023-04-23T01:39:11.666Z,26.63
2023-04-23T01:41:37.283Z,32.42
2023-04-23T01:44:02.864Z,34.13
2023-04-23T01:46:28.608Z,41.92
2023-04-23T01:48:55.594Z,38.08
2023-04-23T01:51:20.285Z,37.72
2023-04-23T01:53:45.097Z,39.25
2023-04-23T01:56:11.885Z,40.45
2023-04-23T01:58:36.581Z,46.08
2023-04-23T02:01:01.519Z,41.58
2023-04-23T02:03:27.237Z,43.78
2023-04-23T02:05:55.286Z,40.83
2023-04-23T02:08:20.051Z,40.60
2023-04-23T02:10:44.825Z,39.58
2023-04-23T02:13:11.304Z,33.33
2023-04-23T02:15:38.312Z,32.13
2023-04-23T02:18:02.921Z,27.80
2023-04-23T02:20:27.659Z,30.55
2023-04-23T02:22:52.702Z,27.70
2023-04-23T02:25:18.215Z,27.52
2023-04-23T02:27:43.405Z,29.27
2023-04-23T02:30:12.245Z,30.92
2023-04-23T02:32:37.847Z,30.70
2023-04-23T02:35:03.785Z,28.83
2023-04-23T02:37:28.921Z,33.70
2023-04-23T02:39:53.600Z,36.08
2023-04-23T02:42:18.400Z,39.50
2023-04-23T02:44:43.212Z,38.13
2023-04-23T02:47:10.023Z,43.92
2023-04-23T02:49:34.698Z,39.22
2023-04-23T02:51:59.329Z,44.72
2023-04-23T02:54:24.155Z,40.30
2023-04-23T02:56:48.966Z,39.20
2023-04-23T02:59:13.994Z,39.55
2023-04-23T03:01:38.810Z,38.47
2023-04-23T03:04:07.716Z,39.58
2023-04-23T03:06:34.648Z,43.67
2023-04-23T03:08:59.789Z,37.88
2023-04-23T03:11:25.005Z,43.15
2023-04-23T03:13:49.991Z,40.00
2023-04-23T03:16:17.018Z,37.40
2023-04-23T03:18:41.615Z,40.00
2023-04-23T03:21:08.133Z,37.83
2023-04-23T03:23:32.807Z,36.33
2023-04-23T03:25:57.571Z,39.10
2023-04-23T03:28:22.143Z,34.85
2023-04-23T03:30:47.258Z,36.22
2023-04-23T03:33:12.024Z,38.22
2023-04-23T03:35:37.099Z,32.53
2023-04-23T03:38:07.575Z,39.20
2023-04-23T03:40:33.913Z,35.13
2023-04-23T03:43:01.403Z,32.28
2023-04-23T03:45:47.364Z,29.50
2023-04-23T03:48:12.115Z,29.42
2023-04-23T03:50:40.563Z,29.90
2023-04-23T03:53:29.883Z,31.17
2023-04-23T03:56:24.604Z,34.80
2023-04-23T03:59:08.375Z,28.92
2023-04-23T04:01:36.352Z,35.35
2023-04-23T04:04:01.634Z,32.88
2023-04-23T04:06:28.837Z,30.30
2023-04-23T04:08:55.159Z,31.10
2023-04-23T04:11:21.253Z,26.50
2023-04-23T04:13:45.792Z,30.17
2023-04-23T04:16:10.902Z,28.38
2023-04-23T04:18:35.583Z,29.50
2023-04-23T04:21:00.888Z,29.00
2023-04-23T04:23:25.773Z,52.47
2023-04-23T04:25:54.739Z,28.98
2023-04-23T04:28:19.173Z,28.92
2023-04-23T04:30:44.224Z,30.15
2023-04-23T04:33:09.033Z,30.90
2023-04-23T04:35:33.558Z,29.83
2023-04-23T04:37:58.963Z,34.40
2023-04-23T04:40:23.877Z,30.35
2023-04-23T04:42:50.126Z,27.55
2023-04-23T04:45:14.861Z,33.13
2023-04-23T04:47:39.871Z,31.33
2023-04-23T04:50:05.484Z,32.17
2023-04-23T04:52:30.471Z,28.42
2023-04-23T04:54:55.201Z,29.60
2023-04-23T04:57:21.483Z,28.48
2023-04-23T04:59:48.368Z,26.95
2023-04-23T05:02:13.179Z,28.98
2023-04-23T05:04:38.616Z,27.30
2023-04-23T05:07:03.604Z,27.67
2023-04-23T05:09:29.290Z,29.52
2023-04-23T05:11:54.140Z,12.75
2023-04-23T05:14:18.866Z,30.63
2023-04-23T05:16:44.914Z,26.60
2023-04-23T05:19:09.835Z,28.10
2023-04-23T05:21:34.281Z,32.50
2023-04-23T05:23:58.910Z,29.40
2023-04-23T05:26:24.091Z,28.17
2023-04-23T05:28:48.614Z,29.90
2023-04-23T05:31:13.121Z,26.75
2023-04-23T05:33:49.250Z,31.05
2023-04-23T05:36:14.746Z,29.40
2023-04-23T05:38:40.710Z,25.88
2023-04-23T05:41:05.478Z,29.35
2023-04-23T05:43:30.084Z,27.75
2023-04-23T05:45:54.884Z,30.17
2023-04-23T05:48:19.841Z,30.25
2023-04-23T05:50:46.604Z,27.10
2023-04-23T05:53:11.448Z,29.80
2023-04-23T05:55:36.283Z,24.67
2023-04-23T05:58:00.797Z,24.08
2023-04-23T06:00:25.455Z,25.13
2023-04-23T06:02:50.039Z,30.95
2023-04-23T06:05:15.080Z,29.33
2023-04-23T06:10:28.097Z,23.65
2023-04-23T06:12:55.858Z,22.38
2023-04-23T06:15:20.539Z,22.55
2023-04-23T06:17:45.042Z,23.35
2023-04-23T06:20:11.983Z,26.25
2023-04-23T06:22:36.585Z,28.90
2023-04-23T06:25:02.687Z,24.83
2023-04-23T06:27:28.622Z,25.65
2023-04-23T06:29:58.976Z,27.83
2023-04-23T06:32:24.404Z,21.13
2023-04-23T06:35:00.068Z,26.65
2023-04-23T06:37:29.643Z,25.55
2023-04-23T06:39:54.498Z,21.15
2023-04-23T06:42:20.963Z,27.58
2023-04-23T06:45:06.367Z,23.00
2023-04-23T06:47:31.490Z,27.13
2023-04-23T06:49:56.195Z,23.67
2023-04-23T06:52:21.084Z,21.30
2023-04-23T06:54:45.744Z,16.10
2023-04-23T06:57:10.752Z,18.50
2023-04-23T06:59:36.688Z,20.02
2023-04-23T07:02:01.870Z,23.38
2023-04-23T07:04:26.978Z,15.55
2023-04-23T07:06:51.920Z,15.65
2023-04-23T07:09:16.406Z,17.20
2023-04-23T07:11:41.408Z,17.58
2023-04-23T07:14:06.689Z,17.45
2023-04-23T07:16:34.191Z,19.98
2023-04-23T07:18:59.421Z,17.33
2023-04-23T07:21:24.168Z,15.77
2023-04-23T07:23:49.259Z,19.73
2023-04-23T07:26:14.180Z,16.33
2023-04-23T07:28:38.809Z,15.23
2023-04-23T07:31:04.428Z,16.52
2023-04-23T07:33:30.616Z,15.75
2023-04-23T07:35:55.309Z,12.98
2023-04-23T07:38:19.902Z,13.40
2023-04-23T07:40:45.205Z,17.13
2023-04-23T07:43:09.843Z,15.20
2023-04-23T07:45:34.846Z,10.40
2023-04-23T07:47:59.719Z,14.05
2023-04-23T07:50:25.799Z,13.10
2023-04-23T07:52:50.219Z,12.20
2023-04-23T07:55:15.379Z,12.05
2023-04-23T07:57:39.870Z,14.57
2023-04-23T08:00:04.760Z,13.93
2023-04-23T08:02:36.822Z,13.18
2023-04-23T08:05:01.625Z,15.13
2023-04-23T08:07:29.938Z,11.57
2023-04-23T08:09:54.722Z,16.00
2023-04-23T08:12:20.237Z,17.85
2023-04-23T08:14:47.383Z,15.75
2023-04-23T08:17:15.575Z,14.43
2023-04-23T08:19:40.342Z,10.27
2023-04-23T08:22:05.212Z,15.50
2023-04-23T08:24:31.696Z,15.70
2023-04-23T08:26:58.244Z,14.15
2023-04-23T08:29:24.252Z,14.15
2023-04-23T08:31:49.003Z,13.95
2023-04-23T08:34:16.707Z,13.05
2023-04-23T08:36:41.302Z,11.13
2023-04-23T08:39:06.293Z,14.13
2023-04-23T08:41:43.000Z,13.85
2023-04-23T08:44:14.952Z,12.27
2023-04-23T08:46:43.873Z,12.23
2023-04-23T08:49:10.451Z,13.27
2023-04-23T08:51:39.902Z,13.88
2023-04-23T08:54:06.888Z,13.25
2023-04-23T08:56:34.324Z,15.13
2023-04-23T08:59:00.135Z,10.27
2023-04-23T09:01:24.819Z,14.50
2023-04-23T09:03:50.194Z,14.95
2023-04-23T09:06:15.069Z,10.85
2023-04-23T09:08:40.272Z,10.95
2023-04-23T09:11:07.420Z,12.68
2023-04-23T09:13:37.373Z,12.40
2023-04-23T09:18:26.409Z,11.75
2023-04-23T09:20:51.713Z,11.90
2023-04-23T09:23:18.973Z,10.38
2023-04-23T09:25:44.097Z,9.75
2023-04-23T09:28:10.952Z,13.77
2023-04-23T09:30:42.369Z,16.20
2023-04-23T09:33:07.316Z,15.98
2023-04-23T09:35:35.702Z,10.05
2023-04-23T09:38:05.128Z,12.93
2023-04-23T09:40:29.856Z,11.00
2023-04-23T09:42:55.226Z,12.80
2023-04-23T09:45:20.153Z,13.63
2023-04-23T09:47:51.430Z,15.10
2023-04-23T09:50:17.016Z,11.18
2023-04-23T09:52:42.789Z,14.25
2023-04-23T09:55:09.055Z,14.93
2023-04-23T09:57:38.636Z,16.70
2023-04-23T10:00:16.989Z,12.95
2023-04-23T10:02:47.105Z,11.80
2023-04-23T10:05:24.438Z,15.93
2023-04-23T10:07:50.967Z,11.20
2023-04-23T10:10:15.969Z,17.63
2023-04-23T10:12:54.120Z,14.10
2023-04-23T10:15:19.847Z,16.92
2023-04-23T10:17:45.058Z,12.07
2023-04-23T10:20:12.307Z,13.02
2023-04-23T10:22:40.304Z,15.45
2023-04-23T10:25:08.978Z,15.13
2023-04-23T10:27:48.348Z,12.82
2023-04-23T10:30:16.580Z,8.98
2023-04-23T10:32:41.856Z,14.68
2023-04-23T10:35:10.280Z,16.13
2023-04-23T10:37:37.757Z,9.98
2023-04-23T10:40:09.295Z,13.73
2023-04-23T10:42:34.045Z,11.60
2023-04-23T10:45:07.205Z,11.98
2023-04-23T10:47:37.878Z,14.75
2023-04-23T10:50:20.378Z,12.05
2023-04-23T10:52:46.847Z,11.65
2023-04-23T10:55:18.677Z,12.40
2023-04-23T10:58:00.866Z,12.32
2023-04-23T11:00:27.532Z,13.80
2023-04-23T11:02:53.415Z,10.23
2023-04-23T11:05:18.437Z,13.75
2023-04-23T11:07:43.003Z,14.13
2023-04-23T11:10:15.902Z,12.63
2023-04-23T11:12:42.093Z,16.25
2023-04-23T11:15:13.861Z,8.90
2023-04-23T11:18:00.941Z,10.77
2023-04-23T11:20:26.024Z,13.20
2023-04-23T11:22:52.067Z,13.68
2023-04-23T11:25:22.544Z,13.60
2023-04-23T11:27:48.140Z,13.25
2023-04-23T11:30:14.474Z,14.40
2023-04-23T11:32:39.166Z,10.73
2023-04-23T11:35:05.652Z,13.07
2023-04-23T11:37:30.368Z,14.95
2023-04-23T11:39:54.826Z,11.90
2023-04-23T11:42:21.982Z,11.68
2023-04-23T11:44:47.931Z,12.60
2023-04-23T11:47:14.052Z,13.52
2023-04-23T11:49:39.768Z,9.98
2023-04-23T11:52:05.476Z,11.07
2023-04-23T11:54:30.868Z,14.27
2023-04-23T11:56:55.932Z,9.90
2023-04-23T11:59:22.210Z,14.50
2023-04-23T12:01:49.070Z,8.90
2023-04-23T12:04:15.249Z,9.57
2023-04-23T12:06:39.982Z,16.95
2023-04-23T12:09:04.793Z,15.05
2023-04-23T12:11:29.331Z,17.83
2023-04-23T12:13:54.224Z,13.68
2023-04-23T12:16:34.696Z,12.05
2023-04-23T12:18:59.291Z,11.23
2023-04-23T12:21:25.994Z,15.75
2023-04-23T12:23:53.317Z,17.05
2023-04-23T12:26:21.454Z,12.90
2023-04-23T12:28:49.164Z,9.65
2023-04-23T12:31:24.351Z,13.15
2023-04-23T12:33:49.035Z,11.02
2023-04-23T12:36:16.390Z,10.45
2023-04-23T12:38:42.573Z,12.15
2023-04-23T12:41:07.224Z,15.27
2023-04-23T12:43:32.470Z,11.93
2023-04-23T12:45:57.472Z,14.57
2023-04-23T12:48:23.724Z,11.70
2023-04-23T12:50:48.678Z,14.02
2023-04-23T12:53:13.503Z,18.42
2023-04-23T12:55:39.829Z,8.82
2023-04-23T12:58:04.540Z,17.08
2023-04-23T13:00:29.210Z,9.98
2023-04-23T13:02:54.036Z,7.15
2023-04-23T13:05:20.080Z,12.07
2023-04-23T13:07:44.941Z,10.60
2023-04-23T13:10:10.346Z,17.00
2023-04-23T13:12:34.895Z,16.48
2023-04-23T13:14:59.888Z,12.60
2023-04-23T13:17:26.409Z,14.43
2023-04-23T13:19:51.367Z,12.05
2023-04-23T13:22:17.420Z,11.68
2023-04-23T13:24:42.072Z,12.38
2023-04-23T13:27:09.951Z,10.90
2023-04-23T13:29:34.518Z,9.57
2023-04-23T13:32:00.281Z,12.65
2023-04-23T13:34:24.936Z,11.68
2023-04-23T13:36:49.729Z,11.30
2023-04-23T13:39:15.708Z,12.68
2023-04-23T13:41:40.705Z,19.05
2023-04-23T13:44:05.490Z,9.00
2023-04-23T13:46:30.265Z,11.10
2023-04-23T13:48:55.399Z,12.50
2023-04-23T13:51:34.108Z,14.23
2023-04-23T13:54:00.654Z,11.80
2023-04-23T13:56:27.807Z,12.23
2023-04-23T13:58:53.160Z,9.15
2023-04-23T14:01:17.785Z,11.32
2023-04-23T14:03:42.373Z,12.75
2023-04-23T14:06:07.212Z,10.50
2023-04-23T14:08:31.698Z,9.35
2023-04-23T14:10:56.180Z,18.98
2023-04-23T14:13:22.860Z,16.83
2023-04-23T14:15:47.875Z,13.85
2023-04-23T14:18:12.597Z,11.68
2023-04-23T14:20:37.501Z,14.65
2023-04-23T14:23:12.558Z,15.02
2023-04-23T14:25:42.884Z,10.93
2023-04-23T14:28:29.886Z,14.68
2023-04-23T14:30:57.190Z,16.13
2023-04-23T14:33:22.050Z,17.17
2023-04-23T14:35:47.703Z,16.20
2023-04-23T14:38:12.336Z,21.95
2023-04-23T14:40:36.824Z,17.88
2023-04-23T14:43:14.630Z,16.65
2023-04-23T14:45:41.709Z,14.95
2023-04-23T14:48:06.254Z,15.63
2023-04-23T14:50:30.972Z,13.25
2023-04-23T14:52:56.173Z,13.68
2023-04-23T14:55:20.802Z,11.13
2023-04-23T14:57:45.540Z,11.82
2023-04-23T15:00:13.307Z,9.30
2023-04-23T15:02:39.457Z,11.48
2023-04-23T15:05:04.095Z,9.00
2023-04-23T15:07:29.483Z,9.55
2023-04-23T15:09:54.520Z,10.27
2023-04-23T15:12:43.222Z,8.38
2023-04-23T15:15:15.271Z,6.70
2023-04-23T15:17:41.624Z,8.60
2023-04-23T15:20:06.879Z,8.65
2023-04-23T15:22:32.796Z,7.22
2023-04-23T15:24:57.204Z,8.98
2023-04-23T15:27:22.121Z,7.65
2023-04-23T15:29:46.674Z,9.63
2023-04-23T15:32:12.194Z,6.43
2023-04-23T15:34:38.041Z,7.25
2023-04-23T15:37:02.518Z,8.93
2023-04-23T15:39:26.926Z,5.45
2023-04-23T15:41:53.820Z,4.32
2023-04-23T15:44:19.032Z,8.05
2023-04-23T15:46:44.036Z,7.70
2023-04-23T15:49:08.643Z,7.40
2023-04-23T15:51:34.729Z,7.18
2023-04-23T15:53:59.218Z,5.97
2023-04-23T15:56:24.411Z,3.97
2023-04-23T15:58:50.050Z,7.85
2023-04-23T16:01:14.799Z,6.65
2023-04-23T16:03:39.754Z,9.32
2023-04-23T16:06:05.195Z,13.48
2023-04-23T16:08:31.124Z,16.58
2023-04-23T16:10:57.195Z,14.43
2023-04-23T16:13:23.170Z,16.05
2023-04-23T16:15:47.677Z,11.85
2023-04-23T16:18:12.168Z,15.00
2023-04-23T16:20:37.296Z,19.35
2023-04-23T16:23:02.568Z,18.27
2023-04-23T16:25:28.768Z,21.17
2023-04-23T16:27:53.522Z,14.63
2023-04-23T16:30:18.233Z,9.90
2023-04-23T16:32:42.759Z,8.65
2023-04-23T16:35:08.546Z,9.45
2023-04-23T16:37:33.149Z,11.20
2023-04-23T16:39:57.709Z,12.77
2023-04-23T16:42:24.006Z,16.67
2023-04-23T16:44:48.674Z,16.88
2023-04-23T16:47:13.292Z,9.18
2023-04-23T16:49:38.050Z,12.00
2023-04-23T16:52:03.849Z,12.80
2023-04-23T16:54:29.201Z,10.80
2023-04-23T16:56:53.641Z,13.15
2023-04-23T16:59:19.951Z,14.23
2023-04-23T17:01:44.454Z,11.68
2023-04-23T17:04:09.604Z,9.73
2023-04-23T17:06:34.921Z,11.13
2023-04-23T17:09:01.185Z,11.52
2023-04-23T17:11:26.114Z,9.75
2023-04-23T17:13:50.936Z,9.23
2023-04-23T17:16:17.111Z,8.57
2023-04-23T17:18:41.778Z,7.38
2023-04-23T17:21:06.470Z,10.55
2023-04-23T17:23:31.509Z,8.50
2023-04-23T17:25:56.036Z,10.73
2023-04-23T17:28:21.119Z,8.75
2023-04-23T17:30:47.670Z,11.35
2023-04-23T17:33:14.135Z,10.10
2023-04-23T17:35:39.137Z,7.45
2023-04-23T17:38:04.113Z,10.10
2023-04-23T17:40:28.999Z,12.40
2023-04-23T17:42:53.665Z,10.20
2023-04-23T17:45:18.595Z,8.10
2023-04-23T17:47:43.233Z,10.85
2023-04-23T17:50:12.247Z,11.00
2023-04-23T17:52:37.723Z,9.30
2023-04-23T17:55:02.682Z,10.93
2023-04-23T17:57:27.453Z,17.55
2023-04-23T17:59:52.172Z,13.32
2023-04-23T18:02:17.527Z,29.45
2023-04-23T18:04:42.674Z,13.55
2023-04-23T18:07:08.741Z,14.27
2023-04-23T18:09:34.901Z,13.55
2023-04-23T18:11:59.745Z,35.72
2023-04-23T18:14:24.801Z,28.90
2023-04-23T18:16:49.453Z,21.80
2023-04-23T18:19:14.498Z,33.85
2023-04-23T18:21:39.976Z,34.72
2023-04-23T18:24:06.214Z,38.30
2023-04-23T18:26:31.277Z,26.17
2023-04-23T18:28:56.672Z,20.92
2023-04-23T18:31:21.662Z,21.23
2023-04-23T18:33:55.115Z,22.67
2023-04-23T18:36:25.342Z,14.93
2023-04-23T18:38:50.984Z,20.48
2023-04-23T18:41:17.148Z,16.83
2023-04-23T18:43:42.083Z,15.82
2023-04-23T18:46:06.746Z,15.32
2023-04-23T18:48:46.307Z,15.45
2023-04-23T18:51:23.093Z,16.90
2023-04-23T18:53:48.115Z,18.00
2023-04-23T18:56:12.565Z,15.85
2023-04-23T18:58:38.526Z,20.27
2023-04-23T19:01:03.353Z,15.98
2023-04-23T19:03:29.263Z,19.27
2023-04-23T19:05:54.016Z,25.95
2023-04-23T19:08:18.634Z,23.90
2023-04-23T19:10:45.030Z,18.38
2023-04-23T19:13:09.973Z,17.30
2023-04-23T19:15:36.192Z,16.25
2023-04-23T19:18:01.304Z,17.00
2023-04-23T19:20:26.060Z,16.42
2023-04-23T19:22:51.090Z,20.48
2023-04-23T19:25:15.980Z,26.15
2023-04-23T19:27:40.876Z,28.08
2023-04-23T19:30:07.000Z,30.50
2023-04-23T19:32:34.219Z,25.38
2023-04-23T19:34:58.698Z,16.35
2023-04-23T19:37:23.746Z,17.15
2023-04-23T19:39:48.282Z,17.92
2023-04-23T19:42:15.664Z,27.13
2023-04-23T19:44:40.166Z,19.50
2023-04-23T19:47:05.498Z,24.20
2023-04-23T19:49:32.246Z,21.23
2023-04-23T19:52:00.196Z,19.38
2023-04-23T19:54:24.843Z,24.17
2023-04-23T19:56:49.532Z,25.50
2023-04-23T19:59:15.423Z,22.05
2023-04-23T20:01:41.111Z,23.75
2023-04-23T20:04:07.339Z,24.83
2023-04-23T20:06:33.560Z,29.92
2023-04-23T20:09:08.048Z,41.13
2023-04-23T20:11:32.737Z,32.03
2023-04-23T20:13:57.311Z,37.15
2023-04-23T20:16:22.349Z,24.52
2023-04-23T20:18:47.395Z,22.95
2023-04-23T20:21:11.839Z,24.27
2023-04-23T20:23:37.737Z,27.38
2023-04-23T20:26:02.480Z,23.45
2023-04-23T20:28:27.257Z,25.00
2023-04-23T20:30:52.040Z,23.95
2023-04-23T20:33:18.834Z,22.25
2023-04-23T20:35:43.761Z,20.80
2023-04-23T20:38:08.939Z,19.35
2023-04-23T20:40:36.241Z,19.90
2023-04-23T20:43:01.040Z,26.40
2023-04-23T20:45:25.781Z,28.42
2023-04-23T20:47:51.518Z,22.63
2023-04-23T20:50:16.256Z,29.98
2023-04-23T20:52:40.949Z,21.27
2023-04-23T20:55:05.751Z,20.50
2023-04-23T20:57:32.465Z,26.20
2023-04-23T20:59:56.981Z,18.83
2023-04-23T21:02:21.696Z,19.38
2023-04-23T21:04:46.307Z,27.27
2023-04-23T21:07:11.238Z,23.75
2023-04-23T21:09:35.861Z,18.85
2023-04-23T21:12:00.932Z,16.58
2023-04-23T21:14:26.894Z,16.40
2023-04-23T21:16:51.336Z,23.75
2023-04-23T21:19:15.938Z,19.75
2023-04-23T21:21:42.567Z,19.08
2023-04-23T21:24:07.441Z,19.60
2023-04-23T21:26:32.799Z,21.20
2023-04-23T21:28:58.370Z,21.55
2023-04-23T21:31:35.207Z,20.25
2023-04-23T21:34:00.124Z,20.45
2023-04-23T21:36:24.945Z,21.15
2023-04-23T21:38:49.896Z,20.30
2023-04-23T21:41:14.294Z,25.52
2023-04-23T21:43:39.567Z,20.13
2023-04-23T21:46:04.215Z,19.17
2023-04-23T21:48:31.384Z,19.75
2023-04-23T21:50:55.964Z,24.20
2023-04-23T21:53:21.556Z,25.38
2023-04-23T21:55:46.341Z,27.40
2023-04-23T21:58:17.298Z,24.90
2023-04-23T22:00:44.493Z,21.92
2023-04-23T22:03:11.600Z,30.25
2023-04-23T22:05:38.635Z,28.95
2023-04-23T22:08:03.175Z,27.05
2023-04-23T22:10:27.787Z,21.13
2023-04-23T22:12:52.549Z,25.58
2023-04-23T22:15:18.887Z,23.77
2023-04-23T22:17:46.403Z,21.40
2023-04-23T22:20:13.488Z,23.45
2023-04-23T22:22:40.490Z,22.83
2023-04-23T22:25:07.067Z,24.80
2023-04-23T22:27:33.597Z,27.55
2023-04-23T22:29:59.382Z,28.83
2023-04-23T22:32:24.105Z,24.08
2023-04-23T22:34:48.763Z,25.88
2023-04-23T22:37:13.447Z,23.17
2023-04-23T22:39:39.614Z,26.85
2023-04-23T22:42:04.082Z,25.50
2023-04-23T22:44:28.618Z,27.00
2023-04-23T22:46:53.155Z,25.48
2023-04-23T22:49:19.115Z,28.45
2023-04-23T22:51:43.927Z,25.63
2023-04-23T22:54:08.377Z,25.65
2023-04-23T22:56:37.694Z,25.50
2023-04-23T22:59:02.219Z,21.67
2023-04-23T23:01:26.702Z,22.35
2023-04-23T23:03:51.536Z,23.98
2023-04-23T23:06:16.814Z,25.55
2023-04-23T23:08:41.510Z,24.08
2023-04-23T23:11:06.108Z,24.65
2023-04-23T23:13:32.329Z,26.55
2023-04-23T23:16:00.542Z,25.48
2023-04-23T23:18:25.286Z,23.50
2023-04-23T23:20:49.723Z,25.75
2023-04-23T23:23:14.402Z,28.67
2023-04-23T23:25:39.169Z,24.00
2023-04-23T23:28:03.719Z,23.08
2023-04-23T23:30:29.697Z,24.83
2023-04-23T23:32:55.527Z,22.95
2023-04-23T23:35:20.128Z,23.15
2023-04-23T23:37:44.648Z,22.67
2023-04-23T23:40:10.807Z,23.27
2023-04-23T23:42:35.472Z,21.77
2023-04-23T23:45:00.034Z,21.15
2023-04-23T23:47:26.487Z,19.55
2023-04-23T23:49:51.277Z,19.60
2023-04-23T23:52:15.840Z,20.80
2023-04-23T23:54:40.435Z,21.20
2023-04-23T23:57:05.312Z,23.23
2023-04-23T23:59:29.795Z,21.58
